Time;durP1;ratioP1;P1;durP2;ratioP2;P2;SDS_P1;SDS_P2;PMS_P1;PMS_P2;Temp;Humidity;BMP_temperature;BMP_pressure;BME280_temperature;BME280_humidity;BME280_pressure;Samples;Min_cycle;Max_cycle;Signal;HPM_P1;HPM_P2
2022/03/09 00:01:50;;;;;;;;;;;21.00;17.10;;;;;;5142599;27;20755;-48
2022/03/09 00:04:16;;;;;;;;;;;19.20;18.70;;;;;;5142340;27;19923;-50
2022/03/09 00:06:42;;;;;;;;;;;20.30;17.80;;;;;;5144075;27;19937;-48
2022/03/09 00:09:10;;;;;;;;;;;20.90;17.20;;;;;;5104620;27;19923;-51
2022/03/09 00:11:36;;;;;;;;;;;21.20;17.00;;;;;;5142446;27;19927;-50
2022/03/09 00:14:02;;;;;;;;;;;19.50;18.30;;;;;;5129460;27;19927;-47
2022/03/09 00:16:28;;;;;;;;;;;20.30;17.70;;;;;;5142358;27;19929;-48
2022/03/09 00:18:54;;;;;;;;;;;21.00;17.20;;;;;;5126693;27;19923;-54
2022/03/09 00:21:19;;;;;;;;;;;21.00;17.10;;;;;;5144638;27;19968;-50
2022/03/09 00:23:45;;;;;;;;;;;19.40;18.50;;;;;;5141920;27;19923;-52
2022/03/09 00:26:11;;;;;;;;;;;20.40;17.70;;;;;;5143010;27;19971;-52
2022/03/09 00:28:37;;;;;;;;;;;21.00;17.20;;;;;;5141524;27;20377;-50
2022/03/09 00:31:03;;;;;;;;;;;21.20;17.00;;;;;;5142357;27;19929;-49
2022/03/09 00:33:28;;;;;;;;;;;19.40;18.50;;;;;;5147861;27;19930;-51
2022/03/09 00:35:54;;;;;;;;;;;20.30;17.80;;;;;;5123411;27;19930;-50
2022/03/09 00:38:20;;;;;;;;;;;20.90;17.30;;;;;;5143402;27;20267;-52
2022/03/09 00:40:48;;;;;;;;;;;21.30;17.00;;;;;;5146700;27;19923;-48
2022/03/09 00:43:14;;;;;;;;;;;19.50;18.30;;;;;;5139300;27;20019;-54
2022/03/09 00:45:41;;;;;;;;;;;20.10;17.90;;;;;;5145501;27;20010;-46
2022/03/09 00:48:06;;;;;;;;;;;20.90;17.30;;;;;;5141925;27;19974;-50
2022/03/09 00:50:32;;;;;;;;;;;21.20;17.00;;;;;;5142105;27;20018;-47
2022/03/09 00:52:58;;;;;;;;;;;19.70;18.20;;;;;;5147311;27;20380;-48
2022/03/09 00:55:24;;;;;;;;;;;20.30;17.80;;;;;;5141655;27;20377;-49
2022/03/09 00:57:49;;;;;;;;;;;21.00;17.20;;;;;;5141894;27;19930;-47
2022/03/09 01:00:15;;;;;;;;;;;21.30;17.00;;;;;;5147091;27;19993;-50
2022/03/09 01:02:41;;;;;;;;;;;19.90;17.90;;;;;;5137493;27;19923;-47
2022/03/09 01:05:07;;;;;;;;;;;19.90;18.00;;;;;;5146305;27;20380;-49
2022/03/09 01:07:33;;;;;;;;;;;20.80;17.20;;;;;;5141453;27;20013;-50
2022/03/09 01:09:59;;;;;;;;;;;21.20;16.90;;;;;;5141590;27;19934;-47
2022/03/09 01:12:25;;;;;;;;;;;20.70;17.10;;;;;;5146705;27;19923;-50
2022/03/09 01:14:50;;;;;;;;;;;19.50;18.10;;;;;;5141582;27;20267;-49
2022/03/09 01:17:16;;;;;;;;;;;20.60;17.20;;;;;;5141556;27;19923;-49
2022/03/09 01:19:42;;;;;;;;;;;21.00;16.80;;;;;;5144774;27;20172;-50
2022/03/09 01:22:08;;;;;;;;;;;21.20;16.70;;;;;;5138145;27;20350;-49
2022/03/09 01:24:33;;;;;;;;;;;19.30;18.00;;;;;;5146683;27;19923;-48
2022/03/09 01:26:59;;;;;;;;;;;20.30;17.30;;;;;;5141028;27;19938;-47
2022/03/09 01:29:25;;;;;;;;;;;20.80;16.90;;;;;;5141294;27;19923;-48
2022/03/09 01:31:50;;;;;;;;;;;21.20;16.60;;;;;;5126434;27;19953;-50
2022/03/09 01:34:16;;;;;;;;;;;19.70;17.60;;;;;;5141095;27;20282;-48
2022/03/09 01:36:42;;;;;;;;;;;20.20;17.30;;;;;;5140971;27;19974;-51
2022/03/09 01:39:08;;;;;;;;;;;20.90;16.80;;;;;;5142463;27;20328;-51
2022/03/09 01:41:34;;;;;;;;;;;21.30;16.50;;;;;;5121486;27;19934;-47
2022/03/09 01:44:06;;;;;;;;;;;20.20;17.20;;;;;;5146268;27;19978;-55
2022/03/09 01:46:32;;;;;;;;;;;20.00;17.50;;;;;;5144405;27;19927;-48
2022/03/09 01:48:58;;;;;;;;;;;20.90;16.80;;;;;;5122430;27;20381;-54
2022/03/09 01:51:24;;;;;;;;;;;21.30;16.50;;;;;;5146728;27;19926;-47
2022/03/09 01:53:49;;;;;;;;;;;20.00;17.40;;;;;;5140935;27;19939;-50
2022/03/09 01:56:15;;;;;;;;;;;20.00;17.50;;;;;;5139857;27;19923;-47
2022/03/09 01:58:41;;;;;;;;;;;20.80;16.80;;;;;;5142863;27;19934;-48
2022/03/09 02:01:07;;;;;;;;;;;21.30;16.50;;;;;;5140892;27;19932;-50
2022/03/09 02:03:33;;;;;;;;;;;19.80;17.60;;;;;;5141431;27;19938;-53
2022/03/09 02:05:59;;;;;;;;;;;20.10;17.60;;;;;;5126523;27;19927;-50
2022/03/09 02:11:09;;;;;;;;;;;21.20;16.80;;;;;;5145130;27;20381;-55
2022/03/09 02:13:38;;;;;;;;;;;19.70;17.90;;;;;;5142312;27;20215;-48
2022/03/09 02:16:04;;;;;;;;;;;20.20;17.70;;;;;;5136481;27;19978;-49
2022/03/09 02:18:30;;;;;;;;;;;20.80;17.10;;;;;;5145273;27;19972;-49
2022/03/09 02:20:57;;;;;;;;;;;21.30;16.80;;;;;;5140601;27;20363;-51
2022/03/09 02:23:23;;;;;;;;;;;20.10;17.60;;;;;;5123584;27;19968;-49
2022/03/09 02:25:49;;;;;;;;;;;19.90;17.90;;;;;;5149513;27;20340;-52
2022/03/09 02:28:15;;;;;;;;;;;20.70;17.20;;;;;;5144019;27;19923;-50
2022/03/09 02:30:41;;;;;;;;;;;21.10;16.90;;;;;;5144043;27;19983;-52
2022/03/09 02:33:07;;;;;;;;;;;20.70;17.20;;;;;;5148163;27;19934;-48
2022/03/09 02:35:32;;;;;;;;;;;19.80;18.00;;;;;;5140225;27;19927;-51
2022/03/09 02:37:58;;;;;;;;;;;20.70;17.30;;;;;;5149092;27;20362;-49
2022/03/09 02:40:24;;;;;;;;;;;21.10;16.90;;;;;;5144022;27;20126;-49
2022/03/09 02:42:50;;;;;;;;;;;20.90;17.10;;;;;;5144070;27;19991;-46
2022/03/09 02:45:16;;;;;;;;;;;19.50;18.40;;;;;;5130829;27;19933;-48
2022/03/09 02:47:42;;;;;;;;;;;20.60;17.40;;;;;;5143928;27;20012;-49
2022/03/09 02:50:08;;;;;;;;;;;21.10;17.00;;;;;;5143687;27;19983;-51
2022/03/09 02:52:36;;;;;;;;;;;21.20;16.90;;;;;;5145089;27;20358;-50
2022/03/09 02:55:01;;;;;;;;;;;19.30;18.50;;;;;;5142412;27;19927;-52
2022/03/09 02:57:27;;;;;;;;;;;20.20;17.80;;;;;;5130592;27;20429;-48
2022/03/09 02:59:53;;;;;;;;;;;20.80;17.30;;;;;;5143595;27;19950;-51
2022/03/09 03:02:19;;;;;;;;;;;21.20;17.00;;;;;;5143797;27;20354;-46
2022/03/09 03:04:45;;;;;;;;;;;20.20;17.70;;;;;;5149150;27;19927;-46
2022/03/09 03:07:10;;;;;;;;;;;20.00;18.10;;;;;;5143431;27;19923;-49
2022/03/09 03:09:36;;;;;;;;;;;20.80;17.30;;;;;;5143073;27;19977;-53
2022/03/09 03:12:02;;;;;;;;;;;21.20;17.00;;;;;;5144645;27;19939;-50
2022/03/09 03:14:28;;;;;;;;;;;20.80;17.20;;;;;;5142764;27;20323;-47
2022/03/09 03:16:53;;;;;;;;;;;19.70;18.20;;;;;;5148748;27;19923;-50
2022/03/09 03:19:19;;;;;;;;;;;20.60;17.40;;;;;;5143639;27;19930;-52
2022/03/09 03:21:45;;;;;;;;;;;21.10;17.00;;;;;;5124682;27;19938;-47
2022/03/09 03:24:11;;;;;;;;;;;20.90;17.00;;;;;;5148665;27;19930;-49
2022/03/09 03:26:36;;;;;;;;;;;19.40;18.30;;;;;;5143067;27;19931;-48
2022/03/09 03:29:02;;;;;;;;;;;20.40;17.50;;;;;;5140189;27;20405;-54
2022/03/09 03:31:31;;;;;;;;;;;20.90;17.10;;;;;;5146075;27;19923;-50
2022/03/09 03:33:57;;;;;;;;;;;21.30;16.80;;;;;;5141750;27;19931;-48
2022/03/09 03:36:23;;;;;;;;;;;19.80;17.80;;;;;;5145165;27;19975;-56
2022/03/09 03:38:48;;;;;;;;;;;20.10;17.70;;;;;;5146571;27;19923;-46
2022/03/09 03:41:14;;;;;;;;;;;20.80;17.00;;;;;;5142936;27;19923;-51
2022/03/09 03:43:40;;;;;;;;;;;21.20;16.80;;;;;;5148617;27;20320;-49
2022/03/09 03:46:06;;;;;;;;;;;20.40;17.20;;;;;;5142947;27;19946;-50
2022/03/09 03:48:31;;;;;;;;;;;19.70;17.90;;;;;;5138683;27;19934;-50
2022/03/09 03:50:57;;;;;;;;;;;20.70;17.10;;;;;;5147394;27;19979;-49
2022/03/09 03:53:23;;;;;;;;;;;21.10;16.80;;;;;;5142561;27;19923;-48
2022/03/09 03:55:49;;;;;;;;;;;21.00;16.80;;;;;;5143213;27;19923;-55
2022/03/09 03:58:14;;;;;;;;;;;19.40;18.10;;;;;;5147713;27;19971;-48
2022/03/09 04:00:40;;;;;;;;;;;20.40;17.20;;;;;;5142510;27;19943;-55
2022/03/09 04:03:06;;;;;;;;;;;21.00;16.80;;;;;;5148154;27;19957;-49
2022/03/09 04:05:32;;;;;;;;;;;21.30;16.60;;;;;;5122829;27;20250;-49
2022/03/09 04:07:57;;;;;;;;;;;19.50;17.80;;;;;;5138889;27;19923;-47
2022/03/09 04:10:23;;;;;;;;;;;20.10;17.50;;;;;;5147501;27;20370;-52
2022/03/09 04:12:49;;;;;;;;;;;20.80;16.90;;;;;;5142534;27;19923;-49
2022/03/09 04:15:15;;;;;;;;;;;21.10;16.70;;;;;;5142540;27;20390;-48
2022/03/09 04:17:44;;;;;;;;;;;19.80;17.80;;;;;;5147866;27;19968;-50
2022/03/09 04:20:11;;;;;;;;;;;20.10;17.70;;;;;;5142491;27;19924;-49
2022/03/09 04:22:37;;;;;;;;;;;20.80;17.00;;;;;;5147678;27;20002;-52
2022/03/09 04:25:02;;;;;;;;;;;21.20;16.70;;;;;;5138341;27;19949;-48
2022/03/09 04:27:28;;;;;;;;;;;20.40;17.30;;;;;;5141029;27;19930;-49
2022/03/09 04:29:54;;;;;;;;;;;19.70;18.00;;;;;;5147759;27;19944;-47
2022/03/09 04:32:20;;;;;;;;;;;20.60;17.20;;;;;;5142145;27;20434;-51
2022/03/09 04:34:45;;;;;;;;;;;21.10;16.90;;;;;;5123655;27;19927;-49
2022/03/09 04:37:11;;;;;;;;;;;21.30;16.70;;;;;;5147592;27;19939;-47
2022/03/09 04:39:37;;;;;;;;;;;19.50;18.10;;;;;;5142083;27;19975;-50
2022/03/09 04:42:03;;;;;;;;;;;20.20;17.60;;;;;;5147270;27;20497;-51
2022/03/09 04:44:29;;;;;;;;;;;20.90;17.10;;;;;;5137851;27;19927;-48
2022/03/09 04:46:55;;;;;;;;;;;21.20;16.80;;;;;;5122583;27;19934;-47
2022/03/09 04:49:20;;;;;;;;;;;20.80;17.00;;;;;;5147575;27;19946;-50
2022/03/09 04:51:46;;;;;;;;;;;19.60;18.20;;;;;;5142025;27;19923;-48
2022/03/09 04:54:12;;;;;;;;;;;20.60;17.30;;;;;;5142222;27;20150;-50
2022/03/09 04:56:37;;;;;;;;;;;21.00;16.90;;;;;;5147330;27;19923;-47
2022/03/09 04:59:03;;;;;;;;;;;21.10;16.80;;;;;;5141859;27;20374;-47
2022/03/09 05:01:29;;;;;;;;;;;19.80;18.00;;;;;;5143408;27;19930;-57
2022/03/09 05:03:55;;;;;;;;;;;20.50;17.40;;;;;;5140842;27;19923;-46
2022/03/09 05:06:21;;;;;;;;;;;21.10;16.90;;;;;;5141573;27;20018;-48
2022/03/09 05:08:46;;;;;;;;;;;20.90;17.00;;;;;;5147091;27;20366;-48
2022/03/09 05:11:12;;;;;;;;;;;19.60;18.20;;;;;;5141666;27;19923;-49
2022/03/09 05:13:38;;;;;;;;;;;20.50;17.40;;;;;;5141568;27;20014;-51
2022/03/09 05:16:05;;;;;;;;;;;21.00;17.00;;;;;;5128673;27;19923;-49
2022/03/09 05:18:31;;;;;;;;;;;21.20;16.80;;;;;;5141563;27;19923;-49
2022/03/09 05:20:57;;;;;;;;;;;19.30;18.50;;;;;;5138568;27;19933;-54
2022/03/09 05:23:23;;;;;;;;;;;20.20;17.80;;;;;;5126576;27;19923;-54
2022/03/09 05:25:49;;;;;;;;;;;20.80;17.30;;;;;;5141143;27;19978;-48
2022/03/09 05:28:15;;;;;;;;;;;21.20;16.90;;;;;;5146697;27;19966;-49
2022/03/09 05:30:41;;;;;;;;;;;21.00;17.10;;;;;;5141347;27;19924;-55
2022/03/09 05:33:06;;;;;;;;;;;19.60;18.40;;;;;;5141552;27;19927;-54
2022/03/09 05:35:32;;;;;;;;;;;20.50;17.50;;;;;;5146939;27;19930;-51
2022/03/09 05:37:58;;;;;;;;;;;21.00;17.10;;;;;;5140204;27;19927;-53
2022/03/09 05:40:24;;;;;;;;;;;21.30;16.90;;;;;;5137558;27;19930;-56
2022/03/09 05:42:50;;;;;;;;;;;19.80;18.10;;;;;;5146447;27;20013;-51
2022/03/09 05:45:15;;;;;;;;;;;20.10;18.00;;;;;;5141340;27;20469;-50
2022/03/09 05:47:41;;;;;;;;;;;20.80;17.40;;;;;;5146789;27;19927;-57
2022/03/09 05:50:08;;;;;;;;;;;21.20;17.10;;;;;;5141329;27;19934;-54
2022/03/09 05:52:34;;;;;;;;;;;20.70;17.40;;;;;;5141128;27;19923;-51
2022/03/09 05:54:59;;;;;;;;;;;19.80;18.30;;;;;;5146504;27;19923;-50
2022/03/09 05:57:25;;;;;;;;;;;20.70;17.60;;;;;;5137670;27;19931;-53
2022/03/09 05:59:51;;;;;;;;;;;21.00;17.30;;;;;;5124832;27;20126;-52
2022/03/09 06:02:17;;;;;;;;;;;21.20;17.20;;;;;;5149950;27;20370;-53
2022/03/09 06:04:43;;;;;;;;;;;19.60;18.50;;;;;;5144302;27;19977;-53
2022/03/09 06:07:09;;;;;;;;;;;20.50;17.80;;;;;;5149941;27;19929;-51
2022/03/09 06:09:35;;;;;;;;;;;21.00;17.40;;;;;;5144526;27;20009;-56
2022/03/09 06:12:00;;;;;;;;;;;21.30;17.20;;;;;;5144398;27;19923;-47
2022/03/09 06:14:26;;;;;;;;;;;19.60;18.50;;;;;;5149526;27;19999;-51
2022/03/09 06:16:52;;;;;;;;;;;20.30;18.10;;;;;;5140132;27;19927;-53
2022/03/09 06:19:18;;;;;;;;;;;20.80;17.50;;;;;;5143494;27;19923;-55
2022/03/09 06:21:43;;;;;;;;;;;21.20;17.20;;;;;;5149423;27;19923;-54
2022/03/09 06:24:09;;;;;;;;;;;20.60;17.50;;;;;;5144065;27;20358;-53
2022/03/09 06:26:36;;;;;;;;;;;19.60;18.40;;;;;;5149693;27;19923;-53
2022/03/09 06:29:05;;;;;;;;;;;20.50;17.60;;;;;;5144302;27;20308;-55
2022/03/09 06:31:31;;;;;;;;;;;21.00;17.20;;;;;;5143900;27;20362;-56
2022/03/09 06:33:57;;;;;;;;;;;21.30;17.00;;;;;;5147162;27;19923;-55
2022/03/09 06:36:23;;;;;;;;;;;20.10;17.80;;;;;;5121346;27;20479;-52
2022/03/09 06:38:49;;;;;;;;;;;20.10;18.00;;;;;;5108179;27;19922;-50
2022/03/09 06:41:14;;;;;;;;;;;20.80;17.40;;;;;;5149306;27;19995;-56
2022/03/09 06:43:40;;;;;;;;;;;21.20;17.10;;;;;;5143823;27;19938;-51
2022/03/09 06:46:09;;;;;;;;;;;20.90;17.20;;;;;;5146248;27;19996;-53
2022/03/09 06:48:35;;;;;;;;;;;19.60;18.40;;;;;;5148513;27;20006;-52
2022/03/09 06:51:01;;;;;;;;;;;20.60;17.60;;;;;;5143512;27;20374;-56
2022/03/09 06:53:27;;;;;;;;;;;21.00;17.20;;;;;;5126764;27;20014;-52
2022/03/09 06:55:53;;;;;;;;;;;21.10;17.10;;;;;;5142644;27;19971;-51
2022/03/09 06:58:19;;;;;;;;;;;19.30;18.50;;;;;;5125250;27;19923;-52
2022/03/09 07:00:45;;;;;;;;;;;20.30;17.80;;;;;;5148981;27;19934;-47
2022/03/09 07:03:11;;;;;;;;;;;20.80;17.30;;;;;;5143525;27;19927;-56
2022/03/09 07:05:36;;;;;;;;;;;21.20;17.10;;;;;;5124997;27;19970;-52
2022/03/09 07:08:02;;;;;;;;;;;20.50;17.50;;;;;;5148970;27;19930;-53
2022/03/09 07:10:28;;;;;;;;;;;20.80;17.40;;;;;;5142221;27;19944;-49
2022/03/09 07:12:54;;;;;;;;;;;21.20;17.10;;;;;;5144842;27;19927;-52
2022/03/09 07:15:20;;;;;;;;;;;20.60;17.50;;;;;;5125057;27;19930;-51
2022/03/09 07:17:46;;;;;;;;;;;19.80;18.40;;;;;;5143243;27;19930;-49
2022/03/09 07:20:13;;;;;;;;;;;20.70;17.60;;;;;;5148769;27;19923;-48
2022/03/09 07:22:39;;;;;;;;;;;21.00;17.30;;;;;;5143969;27;20041;-50
2022/03/09 07:25:05;;;;;;;;;;;20.70;17.50;;;;;;5143924;27;19930;-51
2022/03/09 07:27:31;;;;;;;;;;;19.80;18.30;;;;;;5148499;27;20363;-51
2022/03/09 07:29:57;;;;;;;;;;;20.70;17.50;;;;;;5139656;27;20037;-49
2022/03/09 07:32:22;;;;;;;;;;;21.10;17.20;;;;;;5147055;27;19946;-48
2022/03/09 07:34:48;;;;;;;;;;;20.50;17.60;;;;;;5143206;27;19926;-46
2022/03/09 07:37:14;;;;;;;;;;;20.00;18.10;;;;;;5142859;27;20389;-46
2022/03/09 07:39:40;;;;;;;;;;;20.80;17.50;;;;;;5148423;27;19935;-45
2022/03/09 07:42:06;;;;;;;;;;;21.30;17.10;;;;;;5142879;27;19923;-50
2022/03/09 07:44:32;;;;;;;;;;;19.60;18.30;;;;;;5142911;27;20148;-47
2022/03/09 07:46:58;;;;;;;;;;;20.20;17.90;;;;;;5148068;27;19923;-47
2022/03/09 07:49:24;;;;;;;;;;;20.90;17.30;;;;;;5138726;27;20378;-48
2022/03/09 07:51:49;;;;;;;;;;;21.30;16.90;;;;;;5146943;27;19923;-54
2022/03/09 07:54:16;;;;;;;;;;;19.50;18.40;;;;;;5143665;27;20221;-45
2022/03/09 07:56:42;;;;;;;;;;;20.40;17.60;;;;;;5142651;27;20438;-47
2022/03/09 07:59:08;;;;;;;;;;;21.00;17.10;;;;;;5148333;27;19931;-49
2022/03/09 08:01:34;;;;;;;;;;;20.70;17.30;;;;;;5124177;27;19955;-45
2022/03/09 08:04:00;;;;;;;;;;;19.80;18.10;;;;;;5142582;27;19922;-46
2022/03/09 08:06:25;;;;;;;;;;;20.70;17.40;;;;;;5145917;27;19999;-46
2022/03/09 08:08:51;;;;;;;;;;;21.20;17.00;;;;;;5139202;27;19924;-48
2022/03/09 08:11:17;;;;;;;;;;;20.40;17.50;;;;;;5126151;27;20421;-52
2022/03/09 08:13:43;;;;;;;;;;;19.60;18.30;;;;;;5145969;27;19927;-49
2022/03/09 08:16:08;;;;;;;;;;;20.70;17.40;;;;;;5142293;27;20446;-50
2022/03/09 08:18:34;;;;;;;;;;;21.10;17.00;;;;;;5147977;27;20010;-50
2022/03/09 08:21:00;;;;;;;;;;;20.60;17.40;;;;;;5123245;27;20393;-45
2022/03/09 08:23:26;;;;;;;;;;;19.80;18.10;;;;;;5142375;27;19923;-47
2022/03/09 08:25:52;;;;;;;;;;;20.70;17.40;;;;;;5143612;27;19923;-46
2022/03/09 08:28:17;;;;;;;;;;;21.20;17.00;;;;;;5141350;27;20271;-52
2022/03/09 08:30:43;;;;;;;;;;;20.50;17.40;;;;;;5142506;27;20014;-52
2022/03/09 08:33:09;;;;;;;;;;;19.80;18.10;;;;;;5147586;27;19937;-47
2022/03/09 08:35:35;;;;;;;;;;;20.80;17.30;;;;;;5142069;27;19930;-46
2022/03/09 08:38:00;;;;;;;;;;;21.20;16.90;;;;;;5129089;27;19923;-50
2022/03/09 08:40:26;;;;;;;;;;;19.90;17.80;;;;;;5142080;27;20022;-47
2022/03/09 08:42:52;;;;;;;;;;;20.10;17.80;;;;;;5141420;27;20084;-44
2022/03/09 08:45:18;;;;;;;;;;;20.90;17.10;;;;;;5143032;27;19923;-50
2022/03/09 08:47:44;;;;;;;;;;;21.30;16.80;;;;;;5141482;27;19923;-52
2022/03/09 08:50:10;;;;;;;;;;;19.40;18.30;;;;;;5142094;27;19924;-47
2022/03/09 08:52:36;;;;;;;;;;;20.20;17.80;;;;;;5147387;27;19930;-49
2022/03/09 08:55:02;;;;;;;;;;;20.90;17.20;;;;;;5123567;27;19923;-49
2022/03/09 08:57:29;;;;;;;;;;;21.30;16.90;;;;;;5147233;27;20383;-49
2022/03/09 08:59:57;;;;;;;;;;;19.40;18.40;;;;;;5141749;27;20017;-46
2022/03/09 09:02:23;;;;;;;;;;;20.10;17.90;;;;;;5138575;27;19930;-56
2022/03/09 09:04:49;;;;;;;;;;;20.90;17.30;;;;;;5145337;27;20465;-51
2022/03/09 09:07:15;;;;;;;;;;;21.20;16.90;;;;;;5141731;27;20018;-52
2022/03/09 09:09:41;;;;;;;;;;;19.30;18.50;;;;;;5141707;27;19927;-48
2022/03/09 09:12:06;;;;;;;;;;;20.30;17.70;;;;;;5147347;27;19927;-48
2022/03/09 09:14:32;;;;;;;;;;;21.10;17.10;;;;;;5141564;27;20275;-53
2022/03/09 09:16:58;;;;;;;;;;;21.00;17.10;;;;;;5146988;27;20775;-52
2022/03/09 09:19:24;;;;;;;;;;;19.30;18.60;;;;;;5141940;27;20382;-48
2022/03/09 09:21:50;;;;;;;;;;;20.40;17.70;;;;;;5118585;27;20340;-48
2022/03/09 09:24:15;;;;;;;;;;;21.10;17.20;;;;;;5146202;27;19927;-51
2022/03/09 09:26:41;;;;;;;;;;;20.80;17.30;;;;;;5141151;27;19923;-47
2022/03/09 09:29:07;;;;;;;;;;;19.70;18.30;;;;;;5141195;27;20225;-47
2022/03/09 09:31:33;;;;;;;;;;;20.70;17.40;;;;;;5147465;27;19923;-48
2022/03/09 09:33:59;;;;;;;;;;;21.20;17.00;;;;;;5145070;27;19970;-50
2022/03/09 09:36:25;;;;;;;;;;;20.30;17.70;;;;;;5148607;27;20286;-52
2022/03/09 09:38:50;;;;;;;;;;;19.80;18.30;;;;;;5145787;27;19929;-52
2022/03/09 09:41:18;;;;;;;;;;;20.80;17.50;;;;;;5141347;27;19932;-49
2022/03/09 09:43:45;;;;;;;;;;;21.30;17.10;;;;;;5150156;27;20287;-53
2022/03/09 09:46:11;;;;;;;;;;;19.90;18.20;;;;;;5145125;27;19979;-47
2022/03/09 09:48:36;;;;;;;;;;;20.10;18.10;;;;;;5144906;27;19927;-47
2022/03/09 09:51:02;;;;;;;;;;;20.90;17.40;;;;;;5150365;27;19930;-48
2022/03/09 09:53:30;;;;;;;;;;;21.20;17.20;;;;;;5144943;27;19927;-53
2022/03/09 09:55:57;;;;;;;;;;;19.40;18.70;;;;;;5124772;27;19934;-48
2022/03/09 09:58:22;;;;;;;;;;;20.30;18.10;;;;;;5145725;27;19974;-47
2022/03/09 10:00:48;;;;;;;;;;;21.10;17.40;;;;;;5143789;27;19927;-49
2022/03/09 10:03:14;;;;;;;;;;;21.00;17.40;;;;;;5150026;27;19996;-50
2022/03/09 10:05:40;;;;;;;;;;;19.60;18.90;;;;;;5144758;27;20373;-50
2022/03/09 10:08:06;;;;;;;;;;;20.70;17.90;;;;;;5144824;27;19945;-49
2022/03/09 10:10:36;;;;;;;;;;;21.20;17.50;;;;;;5150150;27;20458;-51
2022/03/09 10:13:18;;;;;;;;;;;20.10;18.00;;;;;;5126131;27;19923;-48
2022/03/09 10:15:47;;;;;;;;;;;20.20;18.00;;;;;;5142766;27;19927;-51
2022/03/09 10:18:17;;;;;;;;;;;21.00;17.30;;;;;;5146363;27;19923;-50
2022/03/09 10:20:43;;;;;;;;;;;21.10;17.30;;;;;;5144476;27;19924;-49
2022/03/09 10:23:09;;;;;;;;;;;19.60;18.70;;;;;;5144151;27;20152;-53
2022/03/09 10:25:34;;;;;;;;;;;20.70;17.80;;;;;;5131267;27;19927;-49
2022/03/09 10:28:03;;;;;;;;;;;21.30;17.30;;;;;;5144680;27;19923;-52
2022/03/09 10:30:33;;;;;;;;;;;20.30;17.90;;;;;;5131484;27;19923;-53
2022/03/09 10:33:00;;;;;;;;;;;20.00;18.20;;;;;;5144753;27;19929;-46
2022/03/09 10:35:29;;;;;;;;;;;21.00;17.40;;;;;;5121486;27;19972;-51
2022/03/09 10:37:55;;;;;;;;;;;21.00;17.30;;;;;;5148585;27;19923;-50
2022/03/09 10:40:21;;;;;;;;;;;19.40;18.90;;;;;;5143800;27;19991;-51
2022/03/09 10:42:47;;;;;;;;;;;20.50;17.90;;;;;;5143950;27;20020;-49
2022/03/09 10:45:13;;;;;;;;;;;21.20;17.30;;;;;;5149074;27;20274;-54
2022/03/09 10:47:43;;;;;;;;;;;20.50;17.90;;;;;;5143945;27;19923;-49
2022/03/09 10:50:09;;;;;;;;;;;19.90;18.40;;;;;;5143694;27;19923;-51
2022/03/09 10:52:53;;;;;;;;;;;20.90;17.60;;;;;;5129429;27;20006;-53
2022/03/09 10:55:19;;;;;;;;;;;21.30;17.30;;;;;;5141183;27;19926;-54
2022/03/09 10:57:45;;;;;;;;;;;19.40;19.00;;;;;;5146248;27;19927;-52
2022/03/09 11:00:11;;;;;;;;;;;20.50;18.10;;;;;;5146744;27;19931;-51
2022/03/09 11:02:40;;;;;;;;;;;21.20;17.60;;;;;;5144305;27;19924;-53
2022/03/09 11:05:06;;;;;;;;;;;20.50;18.00;;;;;;5130621;27;19933;-50
2022/03/09 11:07:33;;;;;;;;;;;20.00;18.50;;;;;;5143714;27;20384;-48
2022/03/09 11:09:59;;;;;;;;;;;20.90;17.70;;;;;;5143774;27;19942;-56
2022/03/09 11:12:25;;;;;;;;;;;21.20;17.40;;;;;;5144666;27;19935;-52
2022/03/09 11:14:51;;;;;;;;;;;19.50;18.70;;;;;;5106922;27;19931;-48
2022/03/09 11:17:20;;;;;;;;;;;20.40;18.00;;;;;;5143566;27;20374;-48
2022/03/09 11:19:45;;;;;;;;;;;21.20;17.30;;;;;;5130905;27;19923;-56
2022/03/09 11:22:11;;;;;;;;;;;20.60;17.60;;;;;;5125091;27;20389;-54
2022/03/09 11:24:39;;;;;;;;;;;19.70;18.50;;;;;;5148920;27;19923;-52
2022/03/09 11:27:07;;;;;;;;;;;20.80;17.50;;;;;;5143082;27;19923;-57
2022/03/09 11:29:35;;;;;;;;;;;21.30;17.10;;;;;;5121754;27;20307;-51
2022/03/09 11:32:01;;;;;;;;;;;19.70;18.10;;;;;;5126243;27;19924;-53
2022/03/09 11:34:34;;;;;;;;;;;20.50;17.50;;;;;;5124245;27;20277;-49
2022/03/09 11:37:00;;;;;;;;;;;21.20;16.90;;;;;;5143077;27;19931;-51
2022/03/09 11:39:26;;;;;;;;;;;20.50;17.10;;;;;;5148545;27;20237;-50
2022/03/09 11:42:11;;;;;;;;;;;20.00;17.40;;;;;;5143179;27;20406;-54
2022/03/09 11:44:39;;;;;;;;;;;20.90;16.70;;;;;;5142962;27;19933;-51
2022/03/09 11:47:06;;;;;;;;;;;21.20;16.50;;;;;;5148164;27;19927;-48
2022/03/09 11:49:33;;;;;;;;;;;19.60;17.50;;;;;;5119681;27;19938;-51
2022/03/09 11:52:05;;;;;;;;;;;20.70;16.70;;;;;;5124982;27;19931;-53
2022/03/09 11:54:41;;;;;;;;;;;21.30;16.20;;;;;;5147800;27;20313;-50
2022/03/09 11:57:07;;;;;;;;;;;19.80;17.20;;;;;;5142130;27;20330;-51
2022/03/09 11:59:33;;;;;;;;;;;20.50;16.60;;;;;;5129984;27;19923;-46
2022/03/09 12:02:00;;;;;;;;;;;21.30;16.10;;;;;;5142807;27;20505;-48
2022/03/09 12:04:42;;;;;;;;;;;20.30;16.70;;;;;;5142479;27;19930;-47
2022/03/09 12:07:11;;;;;;;;;;;19.90;17.30;;;;;;5144394;27;20017;-51
2022/03/09 12:10:00;;;;;;;;;;;20.90;16.50;;;;;;5140814;27;20566;-49
2022/03/09 12:12:27;;;;;;;;;;;21.00;16.50;;;;;;5128745;27;19923;-48
2022/03/09 12:15:06;;;;;;;;;;;19.80;17.60;;;;;;5147851;27;19930;-51
2022/03/09 12:17:38;;;;;;;;;;;20.90;16.70;;;;;;5205183;27;19918;-50
2022/03/09 12:20:18;;;;;;;;;;;21.00;16.50;;;;;;5201374;27;19977;-47
2022/03/09 12:22:55;;;;;;;;;;;19.70;17.60;;;;;;5189948;27;19929;-46
2022/03/09 12:25:39;;;;;;;;;;;20.80;16.60;;;;;;5180056;27;19927;-53
2022/03/09 12:28:28;;;;;;;;;;;21.20;16.30;;;;;;5178195;27;20018;-44
2022/03/09 12:30:54;;;;;;;;;;;19.60;17.20;;;;;;5163083;27;19927;-47
2022/03/09 12:33:24;;;;;;;;;;;20.80;16.40;;;;;;5166150;27;19926;-47
2022/03/09 12:35:50;;;;;;;;;;;21.20;16.10;;;;;;5179960;27;19978;-45
2022/03/09 12:38:15;;;;;;;;;;;19.50;17.20;;;;;;5185330;27;19975;-46
2022/03/09 12:40:41;;;;;;;;;;;20.30;16.60;;;;;;5179838;27;20441;-48
2022/03/09 12:43:07;;;;;;;;;;;21.10;16.00;;;;;;5178888;27;19930;-47
2022/03/09 12:45:52;;;;;;;;;;;21.10;15.90;;;;;;5180466;27;19976;-51
2022/03/09 12:48:21;;;;;;;;;;;19.70;17.10;;;;;;5160809;27;19923;-46
2022/03/09 12:50:47;;;;;;;;;;;20.90;16.20;;;;;;5179511;27;19934;-45
2022/03/09 12:53:22;;;;;;;;;;;21.20;16.00;;;;;;5185069;27;19923;-48
2022/03/09 12:55:48;;;;;;;;;;;19.60;17.20;;;;;;5179273;27;19927;-49
2022/03/09 12:58:20;;;;;;;;;;;20.80;16.30;;;;;;5179474;27;19978;-48
2022/03/09 13:00:46;;;;;;;;;;;21.30;15.90;;;;;;5184640;27;20025;-47
2022/03/09 13:03:12;;;;;;;;;;;20.00;16.60;;;;;;5174951;27;20025;-49
2022/03/09 13:05:38;;;;;;;;;;;20.30;16.40;;;;;;5178020;27;20180;-53
2022/03/09 13:08:05;;;;;;;;;;;21.20;15.70;;;;;;5184630;27;20447;-45
2022/03/09 13:10:31;;;;;;;;;;;20.80;15.80;;;;;;5179182;27;19923;-46
2022/03/09 13:12:59;;;;;;;;;;;19.80;16.80;;;;;;5184979;27;19927;-48
2022/03/09 13:15:35;;;;;;;;;;;20.90;15.80;;;;;;5179076;27;19933;-46
2022/03/09 13:18:01;;;;;;;;;;;21.20;15.50;;;;;;5179447;27;19929;-49
2022/03/09 13:20:26;;;;;;;;;;;19.70;16.30;;;;;;5182599;27;19922;-47
2022/03/09 13:22:52;;;;;;;;;;;20.70;15.60;;;;;;5156509;27;19923;-46
2022/03/09 13:25:18;;;;;;;;;;;21.20;15.30;;;;;;5178636;27;19927;-46
2022/03/09 13:27:44;;;;;;;;;;;19.60;16.40;;;;;;5177447;27;19942;-49
2022/03/09 13:30:11;;;;;;;;;;;20.20;16.10;;;;;;5165029;27;19927;-49
2022/03/09 13:32:37;;;;;;;;;;;21.10;15.40;;;;;;5167575;27;19923;-59
2022/03/09 13:35:03;;;;;;;;;;;20.70;15.50;;;;;;5168019;27;19977;-48
2022/03/09 13:37:38;;;;;;;;;;;19.70;16.50;;;;;;5164533;27;20049;-50
2022/03/09 13:40:08;;;;;;;;;;;20.90;15.60;;;;;;5165737;27;19926;-55
2022/03/09 13:42:35;;;;;;;;;;;21.30;15.30;;;;;;5163708;27;19929;-49
2022/03/09 13:45:11;;;;;;;;;;;19.60;16.60;;;;;;5164694;27;19923;-52
2022/03/09 13:47:47;;;;;;;;;;;20.30;15.90;;;;;;5169989;27;20438;-53
2022/03/09 13:50:16;;;;;;;;;;;21.20;15.30;;;;;;5164456;27;19929;-51
2022/03/09 13:52:42;;;;;;;;;;;20.50;15.80;;;;;;5164640;27;21046;-51
2022/03/09 13:55:08;;;;;;;;;;;19.80;16.50;;;;;;5169948;27;19922;-49
2022/03/09 13:57:35;;;;;;;;;;;20.80;15.70;;;;;;5162019;27;19922;-51
2022/03/09 14:00:01;;;;;;;;;;;21.30;15.30;;;;;;5161494;27;20110;-50
2022/03/09 14:02:27;;;;;;;;;;;19.80;16.30;;;;;;5169608;27;19930;-50
2022/03/09 14:04:53;;;;;;;;;;;20.30;16.20;;;;;;5164104;27;19923;-48
2022/03/09 14:07:21;;;;;;;;;;;21.20;15.50;;;;;;5169698;27;19930;-50
2022/03/09 14:10:05;;;;;;;;;;;20.80;15.80;;;;;;5164662;27;19923;-47
2022/03/09 14:12:36;;;;;;;;;;;19.90;16.70;;;;;;5164301;27;19922;-51
2022/03/09 14:15:02;;;;;;;;;;;21.00;15.80;;;;;;5169352;27;19923;-48
2022/03/09 14:17:28;;;;;;;;;;;21.20;15.70;;;;;;5159579;27;19938;-50